Olomouc, Czech Republic
Current Conditions -  °F | °C
As of 11:00 AM on Saturday 25 Oct 2014 (Local Time) from LKMT Reporting Station
Broken Clouds Broken Clouds  
Wind Chill: 40°   Ceiling: 1900
Heat Index: 43°   Visibility: 5mi
Dew Point: 37°   Wind: 5mph
Humidity: 81%   Direction: 250°WSW
Pressure: 30.24"   Gusts: NA
Location:  49.61°N, 17.25°E
Report Text: LKMT 250900Z 25004KT 8000 BKN019 BKN027 06/03 Q1024 NOSIG
Loading
Personal Weather Stations






























Interactive Weather Map
Tropical Storm Tracking
New forecast layout! Learn more

10-Day Weather Forecast

Advertisements
Track Severe Weather on mobile